メインページ
METAR-TAF:

METAR-TAF

空港 :

チレカ国際空港

ブランタイヤ, マラウイ

緯度: 15-41S, 経度: 034-58E, 海抜: 766m

現時点の気象観測

当レポートは11分前の07:00(UTC)に作成
南/南東の風 11kt
気温 21°C
湿度 53%
気圧 1027 hPa
視程10km以上
高度2000ftの雲はほとんどない

METAR: FWCL 280700Z 16011KT 9999 FEW020 21/11 Q1027 NOSIG

時間: 09:11 (07:11 UTC)

予報

当レポートは2時間41分前の04:30(UTC)に作成
予報は28日の 06時(UTC)から 29日の 12時(UTC)まで有効
南/南東の風 7kt
視程10km以上
高度1500ftの雲はほとんどない
28日の 11時(UTC)から 28日の 13時(UTC)まで徐々に
高度2000ftの雲は散在している
28日の 14時(UTC)から 28日の 16時(UTC)まで徐々に
高度1800ftの雲はほとんどない
28日の 1700時(UTC)から
南/南東の風 10kt
視程10km以上
1,500メートル以下は雲なし、積乱雲なし
29日の 06時(UTC)から 29日の 08時(UTC)まで徐々に
南東の風 6kt
視程10km以上
高度800ftの雲はほとんどない

TAF: FWCL 280430Z 2806/2912 15007KT 9999 FEW015 BECMG 2811/2813 SCT020 BECMG 2814/2816 FEW018 FM281700 16010KT CAVOK BECMG 2906/2908 13006KT 9999 FEW008

4,000以上の空港の気象観測と天気予報(METAR報とTAF報)

利用可能な観測所は地図上に黄色い丸と赤い丸で示す。

丸の上にカーソルを重ねると観測所名を参照できる。

次にクリックすると気象観測と天気予報を参照できる。

マップの切り替え:黒色「×」印の緑ボタンをクリックして拡大、「-」印の緑ボタンをクリックして縮小、緑色の三角印をクリックして隣りの地図に切り替え


METAR-TAF: